createdAt,value
2023-01-06T00:02:31.684Z,3.33
2023-01-06T00:05:57.475Z,3.83
2023-01-06T00:09:22.468Z,4.00
2023-01-06T00:12:48.308Z,4.00
2023-01-06T00:16:15.363Z,5.30
2023-01-06T00:19:40.510Z,5.37
2023-01-06T00:23:05.621Z,5.30
2023-01-06T00:26:30.648Z,5.67
2023-01-06T00:29:55.816Z,5.83
2023-01-06T00:33:20.786Z,6.77
2023-01-06T00:36:45.816Z,7.23
2023-01-06T00:40:11.490Z,6.63
2023-01-06T00:43:36.492Z,8.00
2023-01-06T00:47:02.199Z,7.63
2023-01-06T00:50:27.343Z,8.00
2023-01-06T00:53:52.636Z,7.50
2023-01-06T00:57:17.987Z,9.20
2023-01-06T01:00:43.015Z,9.10
2023-01-06T01:04:08.165Z,7.70
2023-01-06T01:07:33.148Z,8.23
2023-01-06T01:11:05.673Z,7.57
2023-01-06T01:14:30.666Z,8.40
2023-01-06T01:17:58.960Z,7.80
2023-01-06T01:21:24.356Z,7.73
2023-01-06T01:24:49.391Z,8.33
2023-01-06T01:28:14.903Z,8.73
2023-01-06T01:31:40.427Z,7.43
2023-01-06T01:35:05.756Z,8.73
2023-01-06T01:38:30.768Z,8.53
2023-01-06T01:41:56.412Z,7.10
2023-01-06T01:45:41.781Z,9.57
2023-01-06T01:49:25.099Z,7.47
2023-01-06T01:52:53.602Z,8.10
2023-01-06T01:56:21.864Z,8.33
2023-01-06T02:00:08.073Z,7.77
2023-01-06T02:03:33.390Z,8.57
2023-01-06T02:07:00.953Z,8.17
2023-01-06T02:10:30.400Z,8.53
2023-01-06T02:14:02.427Z,7.87
2023-01-06T02:17:51.151Z,9.23
2023-01-06T02:21:57.787Z,12.83
2023-01-06T02:25:52.003Z,8.53
2023-01-06T02:29:41.961Z,8.67
2023-01-06T02:33:28.848Z,8.80
2023-01-06T02:37:11.794Z,8.90
2023-01-06T02:40:59.422Z,8.13
2023-01-06T02:44:27.176Z,9.07
2023-01-06T02:48:00.688Z,7.97
2023-01-06T02:51:37.759Z,7.20
2023-01-06T02:55:09.308Z,8.07
2023-01-06T02:58:54.520Z,7.70
2023-01-06T03:02:23.042Z,8.30
2023-01-06T03:05:52.024Z,8.27
2023-01-06T03:09:23.102Z,8.90
2023-01-06T03:13:08.532Z,10.33
2023-01-06T03:16:34.087Z,9.27
2023-01-06T03:19:59.281Z,10.20
2023-01-06T03:23:24.751Z,10.30
2023-01-06T03:26:52.457Z,9.90
2023-01-06T03:30:17.678Z,10.93
2023-01-06T03:33:56.568Z,10.37
2023-01-06T03:37:48.041Z,10.53
2023-01-06T03:42:06.247Z,10.70
2023-01-06T03:45:36.822Z,12.37
2023-01-06T03:49:12.224Z,12.67
2023-01-06T03:52:55.454Z,12.50
2023-01-06T03:56:29.682Z,14.67
2023-01-06T04:00:02.035Z,12.70
2023-01-06T04:03:27.419Z,13.43
2023-01-06T04:06:52.448Z,13.53
2023-01-06T04:10:18.773Z,13.50
2023-01-06T04:13:27.383Z,16.87
2023-01-06T04:16:38.256Z,12.53
2023-01-06T04:20:04.088Z,13.23
2023-01-06T04:23:32.973Z,18.03
2023-01-06T04:26:43.284Z,13.80
2023-01-06T04:30:08.656Z,14.40
2023-01-06T04:33:33.705Z,13.67
2023-01-06T04:36:58.715Z,12.73
2023-01-06T04:40:23.889Z,14.13
2023-01-06T04:43:38.848Z,13.70
2023-01-06T04:46:39.397Z,14.47
2023-01-06T04:49:49.133Z,14.70
2023-01-06T04:53:13.820Z,14.40
2023-01-06T04:56:09.539Z,15.23
2023-01-06T04:59:13.688Z,15.53
2023-01-06T05:02:06.684Z,14.37
2023-01-06T05:04:49.478Z,14.50
2023-01-06T05:07:27.026Z,16.10
2023-01-06T05:10:01.082Z,15.83
2023-01-06T05:12:31.409Z,16.97
2023-01-06T05:15:11.058Z,16.60
2023-01-06T05:17:48.671Z,15.57
2023-01-06T05:20:28.369Z,17.50
2023-01-06T05:23:13.645Z,16.43
2023-01-06T05:26:05.942Z,17.13
2023-01-06T05:28:45.521Z,18.73
2023-01-06T05:31:33.436Z,16.60
2023-01-06T05:34:05.002Z,17.87
2023-01-06T05:36:48.005Z,17.77
2023-01-06T05:39:31.597Z,16.90
2023-01-06T05:42:06.338Z,17.33
2023-01-06T05:44:36.882Z,16.80
2023-01-06T05:47:05.671Z,16.70
2023-01-06T05:49:32.220Z,17.13
2023-01-06T05:52:00.344Z,16.23
2023-01-06T05:54:38.209Z,16.23
2023-01-06T05:57:18.184Z,15.83
2023-01-06T06:00:06.430Z,16.10
2023-01-06T06:02:52.236Z,17.37
2023-01-06T06:05:35.119Z,16.07
2023-01-06T06:08:29.259Z,15.77
2023-01-06T06:11:33.286Z,16.07
2023-01-06T06:14:23.175Z,15.10
2023-01-06T06:17:07.819Z,15.10
2023-01-06T06:19:58.798Z,15.43
2023-01-06T06:22:50.522Z,15.27
2023-01-06T06:25:32.291Z,15.03
2023-01-06T06:28:05.317Z,17.13
2023-01-06T06:30:40.683Z,15.77
2023-01-06T06:33:17.309Z,16.80
2023-01-06T06:35:57.314Z,16.37
2023-01-06T06:38:30.980Z,17.40
2023-01-06T06:41:02.587Z,18.10
2023-01-06T06:43:35.788Z,17.07
2023-01-06T06:46:11.339Z,17.97
2023-01-06T06:48:43.258Z,17.63
2023-01-06T06:51:17.147Z,18.20
2023-01-06T06:53:45.645Z,17.43
2023-01-06T06:56:13.910Z,16.37
2023-01-06T06:58:40.651Z,16.17
2023-01-06T07:01:14.470Z,17.17
2023-01-06T07:03:41.589Z,18.50
2023-01-06T07:06:11.597Z,16.83
2023-01-06T07:08:38.608Z,17.23
2023-01-06T07:11:05.505Z,16.37
2023-01-06T07:14:30.516Z,17.77
2023-01-06T07:18:02.333Z,16.87
2023-01-06T07:21:02.516Z,16.80
2023-01-06T07:23:44.174Z,15.97
2023-01-06T07:26:28.761Z,16.07
2023-01-06T07:29:06.071Z,15.37
2023-01-06T07:31:32.604Z,14.67
2023-01-06T07:34:47.801Z,15.43
2023-01-06T07:37:14.263Z,14.03
2023-01-06T07:39:40.719Z,15.13
2023-01-06T07:42:10.736Z,15.10
2023-01-06T07:44:37.408Z,15.00
2023-01-06T07:47:04.220Z,15.47
2023-01-06T07:49:30.799Z,15.27
2023-01-06T07:51:57.329Z,14.97
2023-01-06T07:54:23.971Z,14.83
2023-01-06T07:56:52.460Z,16.37
2023-01-06T08:00:14.398Z,14.80
2023-01-06T08:03:39.490Z,15.27
2023-01-06T08:06:41.465Z,15.43
2023-01-06T08:09:08.811Z,15.67
2023-01-06T08:11:35.332Z,15.63
2023-01-06T08:14:01.897Z,15.17
2023-01-06T08:16:28.499Z,15.67
2023-01-06T08:18:55.048Z,14.80
2023-01-06T08:21:21.563Z,15.07
2023-01-06T08:23:48.065Z,14.57
2023-01-06T08:26:17.756Z,14.07
2023-01-06T08:28:45.892Z,12.90
2023-01-06T08:31:15.414Z,13.30
2023-01-06T08:33:42.804Z,12.63
2023-01-06T08:36:12.856Z,10.47
2023-01-06T08:38:40.283Z,17.67
2023-01-06T08:41:07.570Z,11.30
2023-01-06T08:43:34.359Z,9.97
2023-01-06T08:46:04.256Z,8.70
2023-01-06T08:48:31.430Z,8.60
2023-01-06T08:51:11.487Z,9.00
2023-01-06T08:53:38.401Z,9.63
2023-01-06T08:56:16.152Z,9.37
2023-01-06T08:59:05.071Z,9.23
2023-01-06T09:01:37.655Z,9.67
2023-01-06T09:04:06.476Z,10.23
2023-01-06T09:06:33.351Z,9.50
2023-01-06T09:09:00.604Z,9.90
2023-01-06T09:11:27.469Z,9.63
2023-01-06T09:13:54.309Z,9.70
2023-01-06T09:16:21.928Z,9.50
2023-01-06T09:18:49.809Z,9.20
2023-01-06T09:21:18.345Z,7.53
2023-01-06T09:23:44.890Z,8.03
2023-01-06T09:26:12.193Z,7.43
2023-01-06T09:28:38.794Z,7.13
2023-01-06T09:31:06.149Z,8.87
2023-01-06T09:33:35.703Z,7.07
2023-01-06T09:36:03.121Z,7.60
2023-01-06T09:38:29.712Z,6.57
2023-01-06T09:41:17.658Z,6.40
2023-01-06T09:44:02.088Z,6.83
2023-01-06T09:46:34.121Z,4.83
2023-01-06T09:49:14.630Z,6.03
2023-01-06T09:51:41.951Z,6.10
2023-01-06T09:54:31.655Z,5.83
2023-01-06T09:57:06.032Z,6.47
2023-01-06T09:59:45.941Z,6.13
2023-01-06T10:02:21.361Z,5.10
2023-01-06T10:04:47.990Z,4.73
2023-01-06T10:07:45.293Z,6.23
2023-01-06T10:10:26.508Z,4.33
2023-01-06T10:13:00.565Z,4.20
2023-01-06T10:16:01.095Z,4.67
2023-01-06T10:18:59.251Z,3.80
2023-01-06T10:22:24.898Z,4.17
2023-01-06T10:25:39.090Z,4.23
2023-01-06T10:28:19.514Z,4.27
2023-01-06T10:30:50.450Z,4.13
2023-01-06T10:35:55.758Z,4.03
2023-01-06T10:38:27.148Z,4.90
2023-01-06T10:41:01.767Z,4.60
2023-01-06T10:43:29.206Z,4.50
2023-01-06T10:45:55.813Z,4.50
2023-01-06T10:48:29.785Z,4.70
2023-01-06T10:50:58.033Z,5.03
2023-01-06T10:53:24.792Z,4.43
2023-01-06T10:55:58.897Z,5.60
2023-01-06T10:58:37.320Z,4.80
2023-01-06T11:01:09.635Z,6.07
2023-01-06T11:03:37.147Z,6.20
2023-01-06T11:06:17.098Z,7.17
2023-01-06T11:08:44.845Z,6.47
2023-01-06T11:11:27.145Z,7.00
2023-01-06T11:14:01.182Z,7.70
2023-01-06T11:16:33.841Z,6.97
2023-01-06T11:19:04.127Z,4.80
2023-01-06T11:21:46.749Z,4.67
2023-01-06T11:24:18.887Z,4.73
2023-01-06T11:26:53.376Z,4.50
2023-01-06T11:29:40.217Z,4.70
2023-01-06T11:32:21.413Z,4.37
2023-01-06T11:35:05.668Z,4.13
2023-01-06T11:37:43.370Z,5.03
2023-01-06T11:40:29.962Z,3.23
2023-01-06T11:43:01.567Z,2.30
2023-01-06T11:45:39.928Z,1.73
2023-01-06T11:48:17.642Z,1.47
2023-01-06T11:50:52.071Z,1.60
2023-01-06T11:53:19.168Z,1.00
2023-01-06T11:56:02.630Z,1.20
2023-01-06T11:58:38.198Z,0.90
2023-01-06T12:01:12.234Z,1.50
2023-01-06T12:03:42.540Z,1.30
2023-01-06T12:06:35.980Z,1.60
2023-01-06T12:09:33.746Z,1.43
2023-01-06T12:12:10.033Z,0.90
2023-01-06T12:14:38.738Z,1.40
2023-01-06T12:17:33.368Z,1.27
2023-01-06T12:20:27.145Z,1.27
2023-01-06T12:23:11.557Z,1.40
2023-01-06T12:25:42.731Z,1.60
2023-01-06T12:28:28.876Z,1.30
2023-01-06T12:31:28.972Z,1.67
2023-01-06T12:34:34.855Z,1.63
2023-01-06T12:37:22.479Z,1.80
2023-01-06T12:40:08.961Z,1.63
2023-01-06T12:42:51.502Z,1.27
2023-01-06T12:45:32.861Z,1.83
2023-01-06T12:48:03.495Z,1.40
2023-01-06T12:50:41.700Z,1.50
2023-01-06T12:53:26.641Z,2.03
2023-01-06T12:56:29.845Z,1.53
2023-01-06T12:58:56.342Z,2.03
2023-01-06T13:01:45.557Z,1.10
2023-01-06T13:04:41.123Z,1.20
2023-01-06T13:07:16.838Z,1.30
2023-01-06T13:10:14.772Z,1.20
2023-01-06T13:12:57.064Z,1.80
2023-01-06T13:15:27.580Z,1.27
2023-01-06T13:18:18.888Z,1.53
2023-01-06T13:20:51.187Z,1.60
2023-01-06T13:23:55.567Z,1.47
2023-01-06T13:26:37.173Z,1.80
2023-01-06T13:29:18.915Z,1.20
2023-01-06T13:32:04.374Z,1.23
2023-01-06T13:34:36.965Z,1.70
2023-01-06T13:37:38.479Z,1.40
2023-01-06T13:40:13.046Z,1.87
2023-01-06T13:42:42.406Z,1.73
2023-01-06T13:45:16.433Z,2.03
2023-01-06T13:47:43.740Z,2.73
2023-01-06T13:50:14.057Z,1.83
2023-01-06T13:52:41.864Z,1.83
2023-01-06T13:55:24.235Z,1.63
2023-01-06T13:57:50.878Z,1.70
2023-01-06T14:00:28.848Z,1.63
2023-01-06T14:03:01.359Z,1.97
2023-01-06T14:05:31.263Z,2.07
2023-01-06T14:08:03.202Z,1.50
2023-01-06T14:10:43.893Z,2.27
2023-01-06T14:13:27.585Z,2.60
2023-01-06T14:15:55.634Z,1.77
2023-01-06T14:18:38.710Z,1.83
2023-01-06T14:21:14.364Z,2.23
2023-01-06T14:24:01.844Z,1.93
2023-01-06T14:26:58.484Z,1.70
2023-01-06T14:29:43.636Z,1.73
2023-01-06T14:32:31.417Z,2.03
2023-01-06T14:35:20.260Z,2.10
2023-01-06T14:37:59.386Z,1.87
2023-01-06T14:40:29.460Z,1.47
2023-01-06T14:42:59.290Z,2.00
2023-01-06T14:45:29.469Z,2.20
2023-01-06T14:48:06.513Z,2.17
2023-01-06T14:50:46.894Z,2.00
2023-01-06T14:53:30.100Z,1.93
2023-01-06T14:55:58.851Z,1.93
2023-01-06T14:58:29.575Z,1.50
2023-01-06T15:00:56.794Z,1.87
2023-01-06T15:03:25.283Z,2.00
2023-01-06T15:06:09.681Z,1.93
2023-01-06T15:08:36.465Z,1.70
2023-01-06T15:11:33.757Z,2.10
2023-01-06T15:14:00.228Z,2.17
2023-01-06T15:16:38.194Z,2.00
2023-01-06T15:19:12.003Z,1.53
2023-01-06T15:21:40.471Z,2.73
2023-01-06T15:24:19.966Z,1.90
2023-01-06T15:26:46.683Z,1.60
2023-01-06T15:29:19.055Z,1.60
2023-01-06T15:31:47.183Z,2.03
2023-01-06T15:34:33.764Z,2.00
2023-01-06T15:37:02.389Z,1.70
2023-01-06T15:39:31.698Z,1.67
2023-01-06T15:41:59.582Z,1.87
2023-01-06T15:44:33.708Z,1.37
2023-01-06T15:47:15.811Z,2.00
2023-01-06T15:49:53.982Z,1.67
2023-01-06T15:52:30.123Z,1.77
2023-01-06T15:54:59.895Z,1.90
2023-01-06T15:57:30.035Z,2.20
2023-01-06T16:00:00.832Z,1.83
2023-01-06T16:02:31.345Z,2.33
2023-01-06T16:04:59.565Z,1.90
2023-01-06T16:07:40.110Z,1.90
2023-01-06T16:10:30.780Z,2.17
2023-01-06T16:13:29.196Z,2.33
2023-01-06T16:16:19.611Z,1.80
2023-01-06T16:18:46.804Z,1.90
2023-01-06T16:21:20.036Z,2.23
2023-01-06T16:23:53.500Z,2.80
2023-01-06T16:26:27.209Z,2.77
2023-01-06T16:29:00.096Z,2.07
2023-01-06T16:31:36.465Z,2.10
2023-01-06T16:34:21.404Z,2.57
2023-01-06T16:36:49.133Z,2.47
2023-01-06T16:39:15.726Z,2.60
2023-01-06T16:42:00.446Z,2.07
2023-01-06T16:44:29.614Z,2.03
2023-01-06T16:46:59.230Z,1.70
2023-01-06T16:49:29.052Z,1.77
2023-01-06T16:51:55.848Z,1.90
2023-01-06T16:54:23.547Z,1.67
2023-01-06T16:56:52.261Z,1.57
2023-01-06T16:59:20.520Z,2.30
2023-01-06T17:01:48.239Z,2.00
2023-01-06T17:04:15.591Z,2.57
2023-01-06T17:06:44.141Z,1.87
2023-01-06T17:09:22.164Z,1.70
2023-01-06T17:11:50.261Z,1.93
2023-01-06T17:14:19.282Z,2.10
2023-01-06T17:16:47.498Z,1.90
2023-01-06T17:19:30.283Z,2.70
2023-01-06T17:22:14.419Z,1.97
2023-01-06T17:24:41.075Z,2.20
2023-01-06T17:27:07.582Z,2.07
2023-01-06T17:29:37.783Z,2.90
2023-01-06T17:32:15.144Z,2.00
2023-01-06T17:34:41.640Z,1.87
2023-01-06T17:37:15.202Z,2.70
2023-01-06T17:39:44.651Z,2.43
2023-01-06T17:42:11.323Z,2.07
2023-01-06T17:44:41.313Z,3.17
2023-01-06T17:47:16.600Z,1.73
2023-01-06T17:49:52.597Z,1.83
2023-01-06T17:52:23.077Z,2.13
2023-01-06T17:55:15.429Z,2.30
2023-01-06T17:57:45.083Z,2.30
2023-01-06T18:00:20.666Z,2.07
2023-01-06T18:02:53.355Z,2.30
2023-01-06T18:05:25.964Z,2.93
2023-01-06T18:08:01.692Z,2.50
2023-01-06T18:10:28.305Z,2.17
2023-01-06T18:12:55.773Z,2.73
2023-01-06T18:15:32.989Z,2.83
2023-01-06T18:18:02.386Z,2.70
2023-01-06T18:20:29.593Z,2.57
2023-01-06T18:22:56.802Z,2.37
2023-01-06T18:25:25.102Z,2.37
2023-01-06T18:27:51.753Z,2.80
2023-01-06T18:30:28.138Z,2.53
2023-01-06T18:32:54.973Z,2.93
2023-01-06T18:35:28.901Z,2.10
2023-01-06T18:38:00.132Z,2.50
2023-01-06T18:40:26.816Z,2.13
2023-01-06T18:42:54.932Z,2.37
2023-01-06T18:45:24.485Z,1.83
2023-01-06T18:48:00.827Z,2.17
2023-01-06T18:50:38.245Z,2.87
2023-01-06T18:53:10.687Z,2.83
2023-01-06T18:55:41.052Z,2.93
2023-01-06T18:58:16.208Z,2.80
2023-01-06T19:00:48.273Z,2.33
2023-01-06T19:03:19.974Z,3.00
2023-01-06T19:05:47.436Z,2.83
2023-01-06T19:08:21.768Z,2.37
2023-01-06T19:10:49.872Z,2.70
2023-01-06T19:13:23.193Z,2.23
2023-01-06T19:15:49.707Z,3.13
2023-01-06T19:18:18.299Z,2.23
2023-01-06T19:20:46.047Z,2.40
2023-01-06T19:23:21.928Z,3.10
2023-01-06T19:25:53.352Z,12.50
2023-01-06T19:28:23.011Z,2.63
2023-01-06T19:31:00.872Z,3.23
2023-01-06T19:33:34.837Z,2.20
2023-01-06T19:36:26.320Z,2.53
2023-01-06T19:38:53.022Z,2.53
2023-01-06T19:41:29.544Z,2.40
2023-01-06T19:44:15.799Z,3.27
2023-01-06T19:46:47.775Z,2.77
2023-01-06T19:49:19.743Z,2.73
2023-01-06T19:51:48.860Z,2.50
2023-01-06T19:54:21.741Z,2.90
2023-01-06T19:56:49.388Z,3.07
2023-01-06T19:59:19.333Z,2.70
2023-01-06T20:01:46.957Z,2.10
2023-01-06T20:04:23.147Z,3.23
2023-01-06T20:06:50.406Z,3.13
2023-01-06T20:09:17.202Z,2.57
2023-01-06T20:11:43.932Z,2.30
2023-01-06T20:14:10.701Z,2.20
2023-01-06T20:16:37.381Z,2.70
2023-01-06T20:19:04.551Z,3.87
2023-01-06T20:21:31.083Z,3.27
2023-01-06T20:23:58.565Z,2.57
2023-01-06T20:26:26.025Z,3.20
2023-01-06T20:28:52.600Z,2.50
2023-01-06T20:31:19.162Z,3.57
2023-01-06T20:33:46.257Z,3.60
2023-01-06T20:36:17.161Z,3.60
2023-01-06T20:38:45.027Z,3.97
2023-01-06T20:41:11.957Z,3.53
2023-01-06T20:43:38.740Z,3.13
2023-01-06T20:46:05.537Z,4.17
2023-01-06T20:48:32.099Z,2.70
2023-01-06T20:50:58.728Z,2.70
2023-01-06T20:53:25.465Z,2.97
2023-01-06T20:55:52.097Z,2.97
2023-01-06T20:58:18.591Z,2.60
2023-01-06T21:00:45.242Z,3.33
2023-01-06T21:03:11.781Z,3.20
2023-01-06T21:05:39.105Z,3.20
2023-01-06T21:08:05.587Z,2.83
2023-01-06T21:10:32.303Z,2.57
2023-01-06T21:12:58.849Z,3.07
2023-01-06T21:15:28.222Z,3.77
2023-01-06T21:17:54.847Z,3.20
2023-01-06T21:20:21.294Z,4.03
2023-01-06T21:22:47.792Z,3.00
2023-01-06T21:25:14.441Z,3.20
2023-01-06T21:27:40.901Z,3.50
2023-01-06T21:30:07.849Z,3.70
2023-01-06T21:32:34.324Z,3.83
2023-01-06T21:35:00.811Z,3.50
2023-01-06T21:37:27.422Z,4.97
2023-01-06T21:39:53.985Z,3.13
2023-01-06T21:42:39.167Z,4.47
2023-01-06T21:45:06.450Z,5.20
2023-01-06T21:47:32.930Z,5.87
2023-01-06T21:49:59.559Z,5.07
2023-01-06T21:52:26.234Z,5.03
2023-01-06T21:54:52.778Z,5.60
2023-01-06T21:57:19.324Z,4.67
2023-01-06T21:59:45.890Z,4.67
2023-01-06T22:02:14.447Z,4.17
2023-01-06T22:04:41.056Z,4.37
2023-01-06T22:07:09.408Z,4.40
2023-01-06T22:09:39.132Z,3.70
2023-01-06T22:12:08.081Z,4.73
2023-01-06T22:14:35.099Z,5.43
2023-01-06T22:17:01.720Z,13.13
2023-01-06T22:19:29.552Z,4.50
2023-01-06T22:21:56.721Z,3.50
2023-01-06T22:24:24.234Z,4.77
2023-01-06T22:26:50.753Z,4.90
2023-01-06T22:29:17.257Z,4.10
2023-01-06T22:31:43.737Z,4.57
2023-01-06T22:34:10.228Z,4.17
2023-01-06T22:36:36.749Z,4.50
2023-01-06T22:39:03.796Z,3.87
2023-01-06T22:41:30.322Z,3.63
2023-01-06T22:43:56.819Z,3.80
2023-01-06T22:46:23.346Z,3.10
2023-01-06T22:48:49.941Z,4.17
2023-01-06T22:51:16.497Z,4.10
2023-01-06T22:53:43.032Z,4.27
2023-01-06T22:56:11.132Z,4.00
2023-01-06T22:58:39.435Z,4.07
2023-01-06T23:01:07.667Z,4.93
2023-01-06T23:03:34.631Z,4.20
2023-01-06T23:06:04.135Z,4.10
2023-01-06T23:08:33.624Z,4.73
2023-01-06T23:11:00.231Z,4.47
2023-01-06T23:13:27.536Z,4.30
2023-01-06T23:16:22.377Z,3.83
2023-01-06T23:18:50.049Z,4.60
2023-01-06T23:21:21.483Z,4.97
2023-01-06T23:23:49.333Z,4.67
2023-01-06T23:26:21.352Z,5.60
2023-01-06T23:28:48.243Z,6.03
2023-01-06T23:31:17.763Z,4.37
2023-01-06T23:33:49.914Z,5.17
2023-01-06T23:36:19.002Z,5.13
2023-01-06T23:38:46.180Z,4.93
2023-01-06T23:41:17.471Z,4.93
2023-01-06T23:43:44.374Z,4.97
2023-01-06T23:46:14.533Z,4.07
2023-01-06T23:48:41.981Z,4.27
2023-01-06T23:51:10.765Z,4.43
2023-01-06T23:53:38.761Z,3.90
2023-01-06T23:56:16.774Z,4.63
2023-01-06T23:58:45.741Z,5.37
